Millwood, Virginia
Current Conditions -  °F | °C
As of 9:15 AM on Thursday 18 Dec 2014 (Local Time) from KOKV Reporting Station
Overcast Overcast  
Wind Chill: 26°   Ceiling: 3400
Heat Index: 34°   Visibility: 10mi
Dew Point: 18°   Wind: 9mph
Humidity: 52%   Direction: 300°WNW
Pressure: 30.18"   Gusts: NA
Location:  39.07°N, 78.04°W
Report Text: KOKV 181415Z AUTO 30008KT 10SM OVC034 01/M08 A3018 RMK AO2
Loading
Personal Weather Stations






























Interactive Weather Map New forecast layout! Learn more

10-Day Weather Forecast

Advertisements
Track Severe Weather on mobile